Weather observations for the past three days for
Eastland Municipal Airport
Metric (Imperial)
Date Time (cdt) Wind (kph) Vis. (km) Weather Sky Cond. Temperature (ºC) Relative Humidity Wind Chill (°C) Heat Index (°C) Pressure Precipitation (cm)
Air Dwpt 6 hour altimeter (cm) sea level (mb) 1 hr 3 hr 6 hr
Max. Min.
07 14:35 SE 7 16.09 Fair CLR 21.7 7.9 41% 76.3 0.0
07 14:15 E 13 16.09 Fair CLR 22.3 8.2 41% 76.3 0.0
07 13:55 SE 9 16.09 Fair CLR 21.2 7.8 42% 76.33 0.0
07 13:35 E 9 16.09 Fair CLR 20.7 7.4 42% 76.38 0.0
07 13:15 N 11 16.09 Fair CLR 20.7 7.6 43% 76.38 0.0
07 12:55 NE 15 16.09 Fair CLR 20.3 7.8 20.4 7.1 45% 76.38 0.0
07 12:35 NE 11 16.09 Fair CLR 20.1 8.2 46% 76.4 0.0
07 12:15 NE 11 16.09 Fair CLR 18.7 7.1 47% 76.43 0.0
07 11:55 N 19 16.09 Fair CLR 18.6 7.4 48% 76.45 0.0
07 11:35 NE 17 16.09 Fair CLR 18.5 7.8 50% 76.48 0.0
07 11:15 E 15 16.09 Fair CLR 17.5 7.6 52% 76.5 0.0
07 10:55 NE 11 16.09 Fair CLR 17 8.3 57% 76.53 0.0
07 10:35 NE 11 16.09 Fair CLR 16.2 7.6 57% 76.53 0.0
07 10:15 NE 17 16.09 Fair CLR 15.8 7.9 60% 76.53 0.0
07 09:55 NE 13 16.09 Fair CLR 15.5 7.9 61% 76.53 0.0
07 09:35 NE 17 16.09 Fair CLR 14.8 8 64% 76.53 0.0
07 09:15 NE 11 16.09 Fair CLR 13.7 8.5 71% 76.56 0.0
07 08:55 E 13 16.09 Fair CLR 12.7 8.6 76% 76.56 0.0
07 08:35 NE 9 16.09 Fair CLR 11.8 9.6 87% 76.56 0.0
07 08:15 N 6 16.09 Fair CLR 10.1 9.3 95% 76.58 0.0
07 07:55 Calm 16.09 Fair CLR 9.4 9.1 98% 76.56 0.0
07 07:35 Calm 16.09 Fair CLR 9 0 0% 76.56 0.0
07 07:15 Calm 16.09 Fair CLR 8 7 93% 76.56 0.0
07 06:55 N 6 16.09 Fair CLR 7.3 7.2 11.1 7.3 99% 76.56 0.0
07 06:35 Calm 16.09 Fair CLR 7.6 7.2 97% 76.58 0.0
07 06:15 Calm 16.09 Fair CLR 8.1 7.5 96% 76.56 0.0
07 05:55 N 6 16.09 Fair CLR 9 7.9 93% 76.56 0.0
07 05:35 Calm 16.09 Fair CLR 9.3 7.9 91% 76.53 0.0
07 05:15 N 11 16.09 Fair CLR 9.1 8.2 94% 8 76.48 0.0
07 04:55 N 9 16.09 Fair CLR 8.9 8.4 97% 8 76.45 0.0
07 04:35 N 6 16.09 Fair CLR 8.4 7.9 97% 76.45 0.0
07 04:15 N 7 16.09 Fair CLR 8.8 8 95% 8 76.45 0.0
07 03:55 N 7 16.09 Fair CLR 8.7 7.9 95% 8 76.43 0.0
07 03:35 N 11 16.09 Partly Cloudy SCT024 9.2 8.5 95% 8 76.4 0.0
07 03:15 N 6 16.09 Mostly Cloudy BKN022 9.5 8.8 95% 76.43 0.0
07 02:55 Calm 16.09 Fair CLR 9.7 8.5 92% 76.43 0.0
07 02:35 N 9 16.09 Fair CLR 9.7 8.6 93% 9 76.4 0.0
07 02:15 N 11 16.09 Fair CLR 9.7 8.7 94% 8 76.38 0.0
07 01:55 N 9 16.09 Fair CLR 10.1 8.7 91% 76.38 0.0
07 01:35 N 9 16.09 Fair CLR 10.3 8.9 91% 76.35 0.0
07 01:15 NE 11 16.09 Fair CLR 10.8 8.9 88% 76.33 0.0
07 00:55 NE 11 16.09 Fair CLR 11.2 9 17.1 11.1 86% 76.33 0.0
07 00:35 NE 11 16.09 Fair CLR 12 9 82% 76.3 0.0
07 00:15 NE 11 16.09 Fair CLR 12 9 82% 76.28 0.0
06 23:55 NE 13 16.09 Fair CLR 12.1 9 82% 76.28 0.0
06 23:35 NE 17 16.09 Fair CLR 12.3 9 80% 76.28 0.0
06 23:15 NE 13 16.09 Fair CLR 12.5 8.9 79% 76.28 0.0
06 22:55 NE 11 16.09 Fair CLR 12.4 8.9 79% 76.28 0.0
06 22:15 NE 7 16.09 Fair CLR 12.5 9.1 80% 76.28 0.0
06 21:55 NE 7 16.09 Fair CLR 12.4 9.1 80% 76.25 0.0
06 21:35 N 9 16.09 Fair CLR 12.1 9.1 82% 76.25 0.0
06 21:15 NE 9 16.09 Fair CLR 12.9 9.2 78% 76.23 0.0
06 20:55 N 13 16.09 Fair CLR 13.3 9.1 76% 76.2 0.0
06 20:35 N 13 16.09 Fair CLR 13.7 9.1 74% 76.17 0.0
06 20:15 N 15 16.09 Fair CLR 14.5 8.9 69% 76.17 0.0
06 19:55 N 20 16.09 Fair CLR 15.4 9.3 67% 76.15 0.0
06 19:35 N 17 16.09 Fair CLR 15.9 9.7 67% 76.12 0.0
06 19:15 N 17 16.09 Fair CLR 16.3 9.8 66% 76.1 0.0
06 18:55 N 20 16.09 Fair CLR 17.2 10 20.9 14 63% 76.07 0.0
06 18:35 N 17 16.09 Fair CLR 18.2 10.4 61% 76.07 0.0
06 17:55 N 13 16.09 Fair CLR 19.8 10.9 57% 76.02 0.0
06 17:35 N 13 16.09 Fair CLR 20.4 11.1 55% 76.02 0.0
06 17:15 N 9 16.09 Fair CLR 20.4 11.3 56% 76.02 0.0
06 16:35 N 15 16.09 Fair CLR 19.5 10.6 57% 76.02 0.0
06 16:15 NE 20 16.09 Fair CLR 19.6 10.6 56% 76.02 0.0
06 15:55 NE 11 16.09 Fair CLR 18.8 10.3 58% 76.05 0.0
06 15:35 N 9 16.09 Fair CLR 18.7 10.5 59% 76.05 0.0
06 15:15 N 9 16.09 Fair CLR 18.1 10.2 60% 76.07 0.0
06 14:55 NE 9 16.09 Fair CLR 17.3 9.6 61% 76.1 0.0
06 14:35 N 9 16.09 Fair CLR 16.8 9.9 64% 76.12 0.0
06 14:15 N 13 16.09 Fair CLR 16.5 9.4 63% 76.12 0.0
06 13:55 N 13 16.09 Partly Cloudy SCT033 SCT120 16.1 9.4 65% 76.12 0.0
06 13:35 N 13 16.09 Partly Cloudy SCT120 15.3 9.4 68% 76.15 0.0
06 13:15 N 17 16.09 Partly Cloudy SCT021 14.4 8.8 69% 76.15 0.0
06 12:55 N 13 16.09 Overcast OVC021 13.8 8.5 14.1 9.1 71% 76.17 0.0 0.3
06 12:35 N 13 16.09 Overcast OVC019 13.5 8.7 73% 76.17 0.0
06 12:15 N 15 11.27 Light Rain OVC017 12.6 8.6 77% 76.2 0.0
06 11:55 N 15 16.09 Overcast OVC017 12 8.2 78% 76.2 0.0
06 11:35 N 19 16.09 Overcast OVC015 12 8.5 79% 76.15 0.0
06 11:15 N 17 16.09 Overcast OVC011 11 8.4 84% 76.15 0.0
06 10:55 N 24 16.09 Overcast OVC011 10.8 8.5 86% 76.12 0.0
06 10:35 N 22 16.09 Overcast OVC011 10.4 8.6 89% 76.12 0.0
06 10:15 Calm 16.09 Overcast OVC009 10 8.9 93% 76.1 0.0
06 09:55 N 26 16.09 Overcast OVC009 9.6 8.6 94% 7 76.1 0.0 0.15 0.3
06 09:35 N 19 16.09 Overcast OVC011 9.4 8.7 95% 7 76.1 0.0 0.15
06 09:15 N 19 6.44 Light Rain Fog/Mist OVC011 9.3 8.6 95% 7 76.12 0.0 0.13
06 08:55 Calm 16.09 Overcast OVC011 9.2 8.3 94% 76.28 0.0 0.13
06 08:35 N 13 8.05 Light Rain Fog/Mist OVC011 9.2 8.4 95% 7 76.1 0.0 0.1
06 08:15 N 9 16.09 Overcast OVC011 9.1 8.1 94% 8 76.17 0.0
06 07:55 N 15 11.27 Light Rain Fog/Mist OVC011 9.4 7.8 90% 7 76.1 0.0
06 07:35 N 7 16.09 Overcast OVC011 9.8 7.5 86% 9 76.15 0.0
06 06:55 N 20 16.09 Overcast OVC011 9.9 7.5 13.1 9.9 85% 7 75.97 0.0
06 06:35 N 20 G 33 16.09 Overcast OVC011 10 7.7 86% 8 75.97 0.0
06 06:15 N 22 16.09 Overcast OVC013 10.3 7.9 85% 75.97 0.0
06 05:55 N 20 16.09 Overcast SCT013 OVC023 10.4 7.8 84% 76 0.0
06 05:35 N 19 16.09 Overcast SCT013 OVC023 10.5 7.9 84% 75.97 0.0
06 05:15 N 17 16.09 Overcast OVC023 10.5 7.9 84% 75.92 0.0
06 04:55 N 13 16.09 Overcast OVC021 10.5 8 85% 75.9 0.0
06 04:35 N 13 16.09 Overcast OVC023 10.5 8.1 85% 75.87 0.0
06 04:15 N 15 16.09 Overcast OVC023 10.3 8.1 86% 75.84 0.0
06 03:55 N 13 16.09 Mostly Cloudy BKN025 10.3 8.3 88% 75.84 0.0
06 03:35 N 11 16.09 Fair CLR 10.2 8.4 89% 75.84 0.0
06 03:15 N 9 16.09 Fair CLR 10.5 8.5 88% 75.84 0.0
06 02:55 N 11 16.09 Fair CLR 10.7 8.7 88% 75.84 0.0
06 02:35 N 11 16.09 Fair CLR 11 8.9 87% 75.82 0.0
06 02:15 N 15 16.09 Fair CLR 11.3 9.3 88% 75.84 0.0
06 01:55 N 9 16.09 Fair CLR 11.9 9.6 86% 75.84 0.0
06 01:35 N 11 16.09 Fair CLR 12.2 9.8 85% 75.84 0.0
06 01:15 N 7 16.09 Fair CLR 12.5 9.9 84% 75.82 0.0
06 00:55 NE 13 16.09 Fair CLR 13 9.9 23.6 13 82% 75.77 0.0
06 00:35 NE 9 16.09 Fair CLR 13.2 10.2 82% 75.77 0.0
06 00:15 N 13 16.09 Fair CLR 13.5 10.2 81% 75.77 0.0
05 23:55 N 13 16.09 Fair CLR 13.9 10.2 79% 75.79 0.0
05 23:35 N 19 G 26 16.09 Fair CLR 14.4 10.4 77% 75.79 0.0
05 23:15 N 17 16.09 Fair CLR 15.2 10.8 75% 75.77 0.0
05 22:55 N 17 16.09 Fair CLR 16.3 11.2 72% 75.77 0.0
05 22:35 N 17 16.09 Fair CLR 16.9 11.1 69% 75.77 0.0
05 22:15 N 13 16.09 Fair CLR 17.4 11 66% 75.72 0.0
05 21:55 N 13 16.09 Fair CLR 17.5 11 66% 75.72 0.0
05 21:35 N 11 16.09 Fair CLR 17.8 11.2 65% 75.67 0.0
05 21:15 N 11 16.09 Fair CLR 18.3 11.4 64% 75.64 0.0
05 20:55 N 17 16.09 Fair CLR 19 11.9 64% 75.59 0.0
05 20:35 N 11 16.09 Fair CLR 20.1 12.2 61% 75.57 0.0
05 20:15 N 17 16.09 Fair CLR 20.8 12.3 58% 75.54 0.0
05 19:55 N 20 16.09 Fair CLR 21.5 12.6 57% 75.51 0.0
05 19:35 N 20 16.09 Fair CLR 22.3 13.1 56% 75.49 0.0
05 19:15 N 20 16.09 Partly Cloudy SCT120 23 13.4 55% 75.46 0.0
05 18:55 N 15 16.09 Partly Cloudy SCT110 23.8 14.1 33.1 23.7 55% 75.46 0.0
05 18:35 N 17 16.09 Fair CLR 25 14.8 53% 26 75.46 0.0
05 18:10 N 31 G 41 16.09 Partly Cloudy SCT100 SCT120 27.4 15.7 49% 28 75.41 0.0
05 17:55 N 22 16.09 Mostly Cloudy BKN100 BKN120 30.7 14.6 38% 30 75.39 0.0
05 17:35 N 13 16.09 Partly Cloudy SCT090 SCT110 30.6 14 36% 30 75.34 0.0
05 17:15 N 17 11.27 Partly Cloudy SCT095 SCT120 31.5 14.5 36% 31 75.36 0.0
05 16:55 NE 6 11.27 Partly Cloudy SCT110 31.7 13.8 34% 31 75.36 0.0
05 16:35 W 13 16.09 Partly Cloudy SCT110 32.8 14.4 33% 32 75.39 0.0
05 16:15 SW 7 16.09 Fair CLR 32.2 13.3 32% 31 75.39 0.0
05 15:55 Calm 16.09 Fair CLR 32.2 13.7 32% 31 75.41 0.0
05 15:35 SW 13 4.02 Fair with Haze CLR 32.1 13.7 33% 31 75.41 0.0
05 15:15 W 9 16.09 Fair CLR 32 13.5 32% 31 75.44 0.0
05 14:55 SW 11 16.09 Fair CLR 31.2 13.8 35% 30 75.46 0.0
05 14:35 SW 15 16.09 Fair CLR 31 14.7 37% 31 75.46 0.0
05 14:15 W 13 16.09 Fair CLR 30.4 14.6 38% 30 75.46 0.0
05 13:55 W 11 16.09 Fair CLR 30 14.9 40% 30 75.49 0.0
05 13:35 W 13 16.09 Fair CLR 30.1 15 40% 30 75.49 0.0
05 13:15 W 17 16.09 Fair CLR 29.4 16.3 45% 30 75.51 0.0
05 12:55 SW 13 16.09 Fair CLR 28.5 17.1 28.8 18.8 50% 29 75.51 0.0
05 12:35 SW 20 16.09 Fair CLR 28.5 17 50% 29 75.51 0.0
05 12:15 SW 17 16.09 Fair CLR 27.8 17.4 53% 29 75.51 0.0
05 11:55 SW 20 G 31 16.09 Fair CLR 27.5 18.2 57% 28 75.51 0.0
05 11:35 SW 22 G 31 16.09 Fair CLR 26.5 17.4 57% 27 75.51 0.0
05 11:15 SW 20 G 28 16.09 Fair CLR 26.1 17.6 60% 27 75.49 0.0
05 10:55 SW 17 G 30 16.09 Fair CLR 25.4 18 64% 26 75.49 0.0
05 10:15 SW 19 G 28 16.09 Fair CLR 24.4 17.5 66% 25 75.49 0.0
05 09:55 SW 20 G 33 16.09 Fair CLR 24 17.6 68% 25 75.49 0.0
05 09:35 SW 13 G 31 16.09 Fair CLR 23 17.7 72% 75.49 0.0
05 09:15 SW 15 G 30 16.09 Fair CLR 22.5 17.6 74% 75.49 0.0
05 08:55 SW 15 16.09 Fair CLR 21.9 17.5 76% 75.49 0.0
05 08:35 SW 15 16.09 Fair CLR 21 17.2 79% 75.46 0.0
05 08:15 SW 15 16.09 Fair CLR 20.4 17 81% 75.44 0.0
05 07:55 SW 15 16.09 Fair CLR 19.7 16.8 83% 75.44 0.0
05 07:35 SW 11 16.09 Fair CLR 19.2 16.6 85% 75.41 0.0
05 07:15 S 11 16.09 Fair CLR 19 16.5 86% 75.41 0.0
05 06:55 SW 11 16.09 Fair CLR 18.9 16.3 21.8 18.9 85% 75.39 0.0
05 06:35 SW 15 16.09 Fair CLR 19.1 16.4 84% 75.39 0.0
05 06:15 SW 20 16.09 Fair CLR 19.4 16.4 83% 75.39 0.0
05 05:55 SW 15 16.09 Fair CLR 19.5 16.4 82% 75.39 0.0
05 05:35 SW 15 G 28 16.09 Fair CLR 19.6 16.4 82% 75.39 0.0
05 05:15 SW 17 16.09 Fair CLR 19.8 16.4 81% 75.36 0.0
05 04:55 SW 19 G 28 16.09 Fair CLR 19.8 16.4 81% 75.39 0.0
05 04:35 S 13 16.09 Fair CLR 19.9 16.4 80% 75.39 0.0
05 04:15 SW 22 G 30 16.09 Fair CLR 20.1 16.4 79% 75.39 0.0
05 03:55 S 19 16.09 Fair CLR 20.3 16.4 78% 75.41 0.0
05 03:35 S 20 G 31 16.09 Fair CLR 20.5 16.4 77% 75.41 0.0
05 03:15 S 22 G 33 16.09 Fair CLR 20.7 16.5 77% 75.41 0.0
05 02:55 S 19 G 30 16.09 Fair CLR 20.8 16.5 77% 75.41 0.0
05 02:35 S 20 G 31 16.09 Fair CLR 20.9 16.5 76% 75.44 0.0
05 02:15 S 20 16.09 Fair CLR 21.1 16.5 75% 75.46 0.0
05 01:55 S 22 16.09 Fair CLR 21.3 16.5 74% 75.46 0.0
05 01:35 S 20 G 35 16.09 Fair CLR 21.6 16.5 73% 75.46 0.0
05 01:15 S 20 G 30 16.09 Fair CLR 21.7 16.5 72% 75.49 0.0
05 00:55 S 20 G 31 16.09 Fair CLR 21.9 16.5 26.8 21.8 72% 75.51 0.0
05 00:35 S 19 G 33 16.09 Fair CLR 22.2 16.4 70% 75.51 0.0
05 00:15 S 26 G 31 16.09 Fair CLR 22.3 16.4 69% 75.51 0.0
04 23:55 S 20 G 31 16.09 Fair CLR 22.6 16.4 68% 75.51 0.0
04 23:15 S 17 G 35 16.09 Fair CLR 23.1 16.4 66% 75.49 0.0
04 22:55 S 26 G 31 16.09 Fair CLR 23.3 16.4 65% 75.49 0.0
04 22:35 S 22 G 33 16.09 Fair CLR 23.5 16.5 65% 75.49 0.0
04 22:15 S 22 G 37 16.09 Fair CLR 23.7 16.6 65% 75.49 0.0
04 21:55 S 22 16.09 Fair CLR 23.9 16.8 65% 25 75.46 0.0
04 21:35 S 19 16.09 Fair CLR 24.2 16.8 63% 25 75.46 0.0
04 21:15 S 20 16.09 Fair CLR 24.5 16.9 63% 26 75.44 0.0
04 20:55 S 22 16.09 Fair CLR 24.5 16.9 63% 26 75.44 0.0
04 20:35 S 17 16.09 Fair CLR 24.9 16.9 61% 26 75.44 0.0
04 20:15 S 15 16.09 Fair CLR 25 17 61% 26 75.44 0.0
04 19:55 S 17 16.09 Fair CLR 25.9 16.7 57% 27 75.44 0.0
04 19:35 S 24 16.09 Fair CLR 26.3 16.7 56% 27 75.44 0.0
04 19:15 S 30 G 37 16.09 Fair CLR 26.5 16.9 56% 27 75.44 0.0
04 18:55 S 22 G 31 16.09 Fair CLR 26.8 17 29.1 24.8 55% 28 75.44 0.0
04 18:35 S 20 G 28 16.09 Fair CLR 26.9 17.2 55% 28 75.46 0.0
04 18:15 S 28 16.09 Fair CLR 26.9 16.7 54% 28 75.49 0.0
04 17:55 S 28 G 37 16.09 Fair CLR 27 16.3 52% 28 75.49 0.0
04 17:35 S 28 G 41 16.09 Fair CLR 27.8 16.8 51% 28 75.51 0.0
04 17:15 S 31 G 41 16.09 Fair CLR 27.2 16.4 52% 28 75.54 0.0
04 16:55 S 22 G 41 16.09 Fair CLR 27.4 16.7 52% 28 75.54 0.0
04 16:35 S 28 16.09 Fair CLR 27.7 16.5 51% 28 75.54 0.0
04 16:15 S 22 G 39 16.09 Fair CLR 27.7 16 49% 28 75.57 0.0
04 15:55 S 28 G 39 16.09 Fair CLR 27.8 16.2 49% 28 75.59 0.0
04 15:35 S 22 G 37 16.09 Fair CLR 28.6 16.6 48% 29 75.64 0.0
04 14:55 S 28 G 33 16.09 Fair CLR 27 15.8 50% 27 75.69 0.0
Date Time (cdt) Wind (kph) Vis. (km) Weather Sky Cond. Air Dwpt Max. Min. Relative Humidity Wind Chill (°C) Heat Index (°C) altimeter (cm) sea level (mb) 1 hr 3 hr 6 hr
6 hour
Temperature (ºC) Pressure Precipitation (cm)